Flight Track Log - Related Links

Times and Time Zones

All times are in EDT time to prevent confusion due to time zone crossing. See the N546QS flight status page for this flight to view local times or setup timezone preferences in your user account.

Time Position Orientation Groundspeed Altitude Reporting Facility
EDT Latitude Longitude Course Direction KTS MPH feet Rate Location/Type
Fri 08:15:06 PM 44.4439 -123.2175 205° Southwest 280 322 8,600  Level Seattle Center
Fri 08:16:07 PM 44.3661 -123.2247 184° South 282 325 9,000 1,623 Climbing Seattle Center
Fri 08:17:08 PM 44.2819 -123.2319 184° South 309 356 11,900 2,803 Climbing Seattle Center
Fri 08:18:09 PM 44.1756 -123.2456 185° South 377 434 14,700 3,098 Climbing Seattle Center
Fri 08:19:00 PM 43.8772 -123.1587 182° South  Level Estimated
Fri 08:19:10 PM 44.0467 -123.2600 185° South 403 464 18,200  Level Seattle Center
Fri 08:20:00 PM 43.7821 -123.2188 205° Southwest  Level FlightAware Approximate
Fri 08:20:11 PM 43.9261 -123.2722 184° South 427 491 21,500  Level Seattle Center
Fri 08:21:12 PM 43.8014 -123.2858 185° South 443 510 23,000 738 Climbing Seattle Center
Fri 08:22:13 PM 43.6764 -123.3003 185° South 450 518 23,000  Level Seattle Center
Fri 08:23:14 PM 43.5514 -123.3119 184° South 449 517 23,000 639 Level Seattle Center
Fri 08:24:15 PM 43.4264 -123.3269 185° South 451 519 24,300 2,115 Climbing Seattle Center
Fri 08:25:16 PM 43.2972 -123.3386 184° South 463 533 27,300 2,754 Climbing Seattle Center
Fri 08:26:17 PM 43.1631 -123.3519 184° South 480 552 29,900 2,926 Climbing Seattle Center
Fri 08:27:17 PM 43.0308 -123.3489 179° South 477 549 33,200 3,025 Climbing Seattle Center
Fri 08:28:18 PM 42.9014 -123.3475 180° South 467 537 36,000 2,705 Climbing Seattle Center
Fri 08:29:19 PM 42.7733 -123.3425 178° South 461 531 38,700 2,459 Climbing Seattle Center
Fri 08:30:20 PM 42.6331 -123.3414 180° South 461 531 41,000 1,967 Climbing Seattle Center
Fri 08:31:21 PM 42.5050 -123.3386 179° South 462 532 42,700 1,475 Climbing Seattle Center
Fri 08:32:22 PM 42.3808 -123.3356 179° South 450 518 44,000 1,131 Climbing Seattle Center
Fri 08:33:23 PM 42.2542 -123.3325 179° South 456 525 45,000 492 Climbing Seattle Center
Fri 08:34:24 PM 42.1236 -123.3294 179° South 471 542 45,000  Level Seattle Center
Fri 08:35:25 PM 41.9894 -123.3267 179° South 481 554 45,000  Level Seattle Center
Fri 08:36:26 PM 41.8308 -123.3203 178° South 478 550 45,000  Level Seattle Center
Fri 08:37:27 PM 41.6983 -123.3028 174° South 479 551 45,000  Level Seattle Center
Fri 08:38:16 PM 41.5953 -123.2936 176° South 478 550 45,000  Level Oakland Center
Fri 08:39:18 PM 41.4603 -123.2761 174° South 480 552 45,000  Level Oakland Center
Fri 08:40:19 PM 41.3267 -123.2597 175° South 483 556 45,000  Level Oakland Center
Fri 08:41:20 PM 41.1931 -123.2433 175° South 484 557 45,000  Level Oakland Center
Fri 08:42:22 PM 41.0597 -123.2272 175° South 482 555 45,000  Level Oakland Center
Fri 08:43:23 PM 40.9250 -123.2061 173° South 484 557 45,000  Level Oakland Center
Fri 08:44:34 PM 40.7631 -123.1881 175° South 488 562 45,000  Level Seattle Center
Fri 08:45:25 PM 40.6322 -123.1736 175° South 483 556 45,000  Level Oakland Center
Fri 08:46:27 PM 40.4997 -123.1558 174° South 481 554 45,000  Level Oakland Center
Fri 08:47:28 PM 40.3669 -123.1411 175° South 481 554 45,000  Level Oakland Center
Fri 08:48:29 PM 40.2328 -123.1236 174° South 487 560 45,000  Level Oakland Center
Fri 08:49:30 PM 40.0989 -123.1081 175° South 487 560 45,000  Level Oakland Center
Fri 08:50:32 PM 39.9658 -123.0922 175° South 485 558 45,000  Level Oakland Center
Fri 08:51:33 PM 39.8308 -123.0761 175° South 487 560 45,000 -984 Level Oakland Center
Fri 08:52:34 PM 39.6975 -123.0586 174° South 485 558 43,000 -2,049 Descending Oakland Center
Fri 08:53:36 PM 39.5447 -123.0411 175° South 459 528 40,800 -1,951 Descending Oakland Center
Fri 08:54:37 PM 39.4294 -123.0244 174° South 461 531 39,000 -1,820 Descending Oakland Center
Fri 08:55:38 PM 39.3019 -123.0089 175° South 461 531 37,100 -1,561 Descending Oakland Center
Fri 08:56:40 PM 39.1742 -122.9931 175° South 461 531 35,800 -1,756 Descending Oakland Center
Fri 08:57:41 PM 39.0194 -122.9764 175° South 464 534 33,500 -2,115 Descending Oakland Center
Fri 08:58:42 PM 38.8897 -122.9611 175° South 468 539 31,500 -1,951 Descending Oakland Center
Fri 08:59:44 PM 38.7581 -122.9467 175° South 475 547 29,500 -1,935 Descending Oakland Center
Fri 09:00:46 PM 38.6236 -122.9322 175° South 482 555 27,500 -1,902 Descending Oakland Center
Fri 09:01:47 PM 38.4933 -122.9167 175° South 472 543 25,600 -1,869 Descending Oakland Center
Fri 09:02:48 PM 38.3672 -122.9019 175° South 456 525 23,700 -1,869 Descending Oakland Center
Fri 09:03:49 PM 38.2431 -122.8883 175° South 450 518 21,800 -1,854 Descending Oakland Center
Fri 09:04:51 PM 38.1283 -122.8400 162° South 435 501 19,900 -2,000 Descending Oakland Center
Fri 09:05:52 PM 38.0031 -122.7494 150° Southeast 433 498 17,700 -1,951 Descending Oakland Center
Fri 09:06:54 PM 37.9017 -122.6775 151° Southeast 431 496 15,900 -1,759 Descending Oakland Center
Fri 09:07:48 PM 37.8167 -122.5833 139° Southeast 414 476 14,300 -1,737 Descending Northern Cal TRACON
Fri 09:08:48 PM 37.7333 -122.5000 142° Southeast 410 472 12,600 -1,200 Descending Northern Cal TRACON
Fri 09:09:48 PM 37.6500 -122.4000 136° Southeast 402 463 11,900 -1,145 Descending Northern Cal TRACON
Fri 09:10:59 PM 37.5431 -122.3228 150° Southeast 354 407 10,100 -1,534 Descending Oakland Center
Fri 09:12:01 PM 37.4617 -122.2783 157° South 324 373 8,500 -1,463 Descending Oakland Center
Fri 09:13:02 PM 37.3900 -122.2300 152° Southeast 306 352 7,100 -738 Descending Oakland Center
Fri 09:14:03 PM 37.3439 -122.1544 127° Southeast 271 312 7,000 -49 Descending Oakland Center
Fri 09:15:05 PM 37.2986 -122.0817 128° Southeast 269 310 7,000 -49 Level Oakland Center
Fri 09:16:06 PM 37.2542 -122.0081 127° Southeast 266 306 6,900  Descending Oakland Center
Fri 09:17:08 PM 37.2164 -121.9442 127° Southeast 235 270 7,000 -146 Climbing Oakland Center
Fri 09:18:09 PM 37.2017 -121.8833 107° East 211 243 6,600 -1,475 Descending Oakland Center
Fri 09:19:10 PM 37.2494 -121.8433 34° Northeast 197 227 4,000 -2,311 Descending Oakland Center
Fri 09:20:11 PM 37.2958 -121.8611 343° North 184 212 1,900 -1,610 Descending Oakland Center
Fri 09:21:13 PM 37.3325 -121.8953 323° Northwest 173 199 700 4,927 Descending Oakland Center
Fri 09:22:14 PM 37.3550 -121.9239 315° West 139 160 12,000 11,115 Climbing Oakland Center

Login

Don't have an account? Register now (free) for customized features, flight alerts, and more!